ADDS METAR Data INFO
IDs: Format: Raw Decoded Include TAF

Data at: 1717 UTC 23 Oct 2017

KMCE 231653Z AUTO 13007KT 9SM CLR 17/09 A3028 RMK AO2 SLP253 T01670089
KMCE 231553Z AUTO 13007KT 10SM CLR 13/08 A3028 RMK AO2 SLP255 T01280083
KMCE 231453Z AUTO 15003KT 10SM CLR 09/07 A3026 RMK AO2 SLP247 T00940067 53008
KMCE 231353Z AUTO 11003KT 10SM CLR 08/06 A3025 RMK AO2 SLP244 T00830056
KMCE 231253Z AUTO 11004KT 10SM CLR 08/06 A3025 RMK AO2 SLP242 T00830061
KMCE 231153Z AUTO 11004KT 10SM CLR 09/07 A3024 RMK AO2 SLP239 T00890067 10122 20083 58005
KMCE 231053Z AUTO 10004KT 10SM CLR 09/07 A3024 RMK AO2 SLP241 T00890067
KMCE 230953Z AUTO 10003KT 10SM CLR 10/07 A3025 RMK AO2 SLP243 T01000072
KMCE 230853Z AUTO 12003KT 10SM CLR 09/07 A3025 RMK AO2 SLP243 T00940067 58005
KMCE 230753Z AUTO 12005KT 10SM CLR 08/06 A3026 RMK AO2 SLP247 T00830061 402390050
KMCE 230653Z AUTO 00000KT 10SM CLR 12/07 A3026 RMK AO2 SLP247 T01220072
KMCE 230553Z AUTO 00000KT 10SM CLR 11/07 A3027 RMK AO2 SLP249 T01110072 10233 20100 52006
KMCE 230453Z AUTO 00000KT 10SM CLR 13/07 A3026 RMK AO2 SLP248 T01330072
KMCE 230353Z AUTO 27005KT 10SM CLR 16/08 A3025 RMK AO2 SLP244 T01560078
KMCE 230253Z AUTO 10SM CLR 18/08 A3025 RMK AO2 SLP243 T01830083 53002
KMCE 230153Z AUTO 30003KT 10SM CLR 20/08 A3024 RMK AO2 SLP241 T02000078
KMCE 230053Z AUTO 30004KT 10SM CLR 22/08 A3024 RMK AO2 SLP240 T02170083
KMCE 222353Z AUTO 35009G15KT 10SM CLR 23/08 A3024 RMK AO2 SLP240 T02330078 10239 20167 58010
KMCE 222253Z AUTO 33007KT 10SM CLR 24/07 A3026 RMK AO2 SLP246 T02390072
KMCE 222153Z AUTO 34008KT 10SM CLR 23/07 A3026 RMK AO2 SLP246 T02330067
KMCE 222053Z AUTO 35011KT 10SM CLR 23/06 A3027 RMK AO2 SLP251 T02280061 58025
KMCE 221953Z AUTO 30009KT 10SM CLR 21/06 A3030 RMK AO2 SLP260 T02110061
KMCE 221853Z AUTO 32008KT 10SM CLR 19/06 A3032 RMK AO2 SLP269 T01940061
KMCE 221753Z AUTO 30006KT 10SM CLR 17/07 A3035 RMK AO2 SLP277 T01670072 10167 20050 50011
KMCE 221653Z AUTO 00000KT 10SM CLR 13/07 A3035 RMK AO2 SLP277 T01330072
KMCE 221553Z AUTO 00000KT 10SM CLR 11/07 A3034 RMK AO2 SLP275 T01110067
KMCE 221453Z AUTO 00000KT 10SM CLR 07/05 A3032 RMK AO2 SLP266 T00720050 53003
KMCE 221353Z AUTO 00000KT 10SM CLR 06/03 A3030 RMK AO2 SLP262 T00610033
KMCE 221253Z AUTO 31004KT 10SM CLR 07/04 A3030 RMK AO2 SLP261 T00670039
KMCE 221153Z AUTO 00000KT 10SM CLR 08/05 A3031 RMK AO2 SLP263 T00830050 10117 20061 50002
KMCE 221053Z AUTO 12003KT 10SM CLR 06/04 A3031 RMK AO2 SLP265 T00610044
KMCE 220953Z AUTO 00000KT 10SM CLR 09/06 A3031 RMK AO2 SLP263 T00890056
KMCE 220853Z AUTO 00000KT 10SM CLR 11/06 A3030 RMK AO2 SLP261 T01060056 53005
KMCE 220753Z AUTO 00000KT 10SM CLR 09/05 A3029 RMK AO2 SLP256 T00940050 402110067
KMCE 220653Z AUTO 00000KT 10SM CLR 11/06 A3029 RMK AO2 SLP255 T01060056
KMCE 220553Z AUTO 00000KT 10SM CLR 11/06 A3029 RMK AO2 SLP256 T01110056 10211 20111 52017